Southern Illinois Airport
KMDH : now visible

Airfield :











YOU CAN JOIN US ON...

 
LOGIN :

Register | Disclaimer

   EN    FR    IT 

 









Legend :    VFR   Marginal VFR   IFR   Intensive IFR   Very Intensive IFR
Visi :
Ceiling :
>= 8 km
>= 3000ft
5 to 8 km
1000 to 3000 ft
1500m to 5 km
500 to 1000 ft
800 to 1500m
200 to 500 ft
< 800m
< 200 ft
Symbols :   Thunderstorms  Fog  Heavy snow  Heavy precipitations  Wind > 20 kt






- Airport Elevation : 411 ft
- IATA code : MDH


KMDH - Southern Illinois

CURRENT METAR :
  • 250252Z AUTO 11006KT 10SM BKN043 OVC055 20/17 A2993 RMK AO2 SLP134 T02000172 55005

EXPIRED METARs :
  • 250152Z 09005KT 10SM SCT065 19/17 A2992 RMK AO2 SLP131 T01940167
  • 250052Z 09007KT 10SM CLR 21/17 A2992 RMK AO2 SLP131 T02060167

TAF N/A
KZKC FIR / North America



MET'MAP, your aeronautical weather chart ! - Copyright ORBIFLY December 2007 - Disclaimer

ORBIFLY MET'MAP TEAM :

Programming & Development : Alexandra Zaïnal
Original concept : Baudouin d'Aumeries
Technical & hardware support : Manuel Goepfert
Assistance : Marc-Olivier Méhu

Contact : metmap@orbifly.com




SOURCES & CREDITS :

   NOAA       Earth
Advisory